Time;durP1;ratioP1;P1;durP2;ratioP2;P2;SDS_P1;SDS_P2;PMS_P1;PMS_P2;Temp;Humidity;BMP_temperature;BMP_pressure;BME280_temperature;BME280_humidity;BME280_pressure;Samples;Min_cycle;Max_cycle;Signal;HPM_P1;HPM_P2
2023/05/05 00:01:12;;;;;;;7.55;4.22;;;9.00;99.90;;;;;;4979698;28;20051;-77
2023/05/05 00:03:38;;;;;;;7.00;4.22;;;9.00;99.90;;;;;;4971291;28;20054;-77
2023/05/05 00:06:04;;;;;;;5.70;4.07;;;8.90;99.90;;;;;;4978354;28;20521;-77
2023/05/05 00:08:30;;;;;;;5.50;3.88;;;8.90;99.90;;;;;;4982629;28;20031;-77
2023/05/05 00:10:56;;;;;;;4.50;3.60;;;8.80;99.90;;;;;;4980197;28;20046;-77
2023/05/05 00:13:22;;;;;;;7.55;3.67;;;8.80;99.90;;;;;;4982711;28;20055;-77
2023/05/05 00:15:49;;;;;;;4.47;3.40;;;8.90;99.90;;;;;;4970245;28;20043;-77
2023/05/05 00:18:16;;;;;;;6.38;4.00;;;9.00;99.90;;;;;;4976488;28;20081;-75
2023/05/05 00:20:42;;;;;;;5.97;3.90;;;9.00;99.90;;;;;;4981895;28;20097;-77
2023/05/05 00:23:08;;;;;;;5.07;3.63;;;9.10;99.90;;;;;;4982892;28;20031;-76
2023/05/05 00:25:34;;;;;;;5.35;4.05;;;9.00;99.90;;;;;;4977659;28;20034;-76
2023/05/05 00:27:59;;;;;;;4.47;3.67;;;9.10;99.90;;;;;;4985259;28;20034;-77
2023/05/05 00:30:26;;;;;;;6.45;4.35;;;8.80;99.90;;;;;;4978393;28;20067;-79
2023/05/05 00:32:53;;;;;;;5.55;4.28;;;8.30;99.90;;;;;;4983117;28;20031;-77
2023/05/05 00:35:19;;;;;;;6.95;3.80;;;7.90;99.90;;;;;;4984585;28;20482;-77
2023/05/05 00:37:45;;;;;;;6.05;3.95;;;8.00;99.90;;;;;;4981633;28;20035;-76
2023/05/05 00:40:12;;;;;;;6.22;4.28;;;8.00;99.90;;;;;;4984817;28;20034;-77
2023/05/05 00:42:39;;;;;;;7.40;4.35;;;8.10;99.90;;;;;;4984860;28;20026;-78
2023/05/05 00:45:05;;;;;;;7.72;4.43;;;8.20;99.90;;;;;;4984479;28;20031;-77
2023/05/05 00:47:30;;;;;;;7.20;4.80;;;8.20;99.90;;;;;;4985576;28;20021;-78
2023/05/05 00:49:56;;;;;;;6.35;4.57;;;8.20;99.90;;;;;;4984385;28;20031;-77
2023/05/05 00:52:22;;;;;;;8.73;4.70;;;8.30;99.90;;;;;;4967040;28;20394;-77
2023/05/05 00:54:48;;;;;;;6.65;4.68;;;8.20;99.90;;;;;;4979685;28;20031;-78
2023/05/05 00:57:13;;;;;;;5.82;4.10;;;8.20;99.90;;;;;;4970664;28;20045;-77
2023/05/05 00:59:40;;;;;;;5.70;4.03;;;8.10;99.90;;;;;;4984866;28;20391;-78
2023/05/05 01:02:06;;;;;;;5.63;4.00;;;7.80;99.90;;;;;;4984026;28;20054;-75
2023/05/05 01:04:31;;;;;;;6.32;4.55;;;7.50;99.90;;;;;;4965158;28;20027;-75
2023/05/05 01:06:57;;;;;;;5.22;4.10;;;7.50;99.90;;;;;;4980419;28;20061;-76
2023/05/05 01:09:35;;;;;;;6.13;4.25;;;7.60;99.90;;;;;;4984824;28;20034;-76
2023/05/05 01:12:07;;;;;;;5.28;3.75;;;7.70;99.90;;;;;;4981948;28;20092;-76
2023/05/05 01:14:49;;;;;;;5.80;4.03;;;7.80;99.90;;;;;;4982091;28;20053;-76
2023/05/05 01:17:20;;;;;;;5.22;4.03;;;7.70;99.90;;;;;;4982296;28;20035;-76
2023/05/05 01:19:58;;;;;;;7.75;4.20;;;7.60;99.90;;;;;;4982561;28;20110;-76
2023/05/05 01:22:32;;;;;;;5.85;4.43;;;7.50;99.90;;;;;;4975803;28;20031;-78
2023/05/05 01:25:17;;;;;;;6.10;4.18;;;7.40;99.90;;;;;;4963102;29;20023;-76
2023/05/05 01:28:15;;;;;;;6.75;4.05;;;7.30;99.90;;;;;;4970932;28;20027;-76
2023/05/05 01:31:04;;;;;;;4.15;3.58;;;7.30;99.90;;;;;;4961994;28;20055;-76
2023/05/05 01:33:42;;;;;;;9.00;4.95;;;7.40;99.90;;;;;;4980554;28;20480;-76
2023/05/05 01:36:14;;;;;;;5.22;4.07;;;7.50;99.90;;;;;;4969705;28;20031;-75
2023/05/05 01:38:42;;;;;;;4.47;3.65;;;7.60;99.90;;;;;;4964528;28;20031;-76
2023/05/05 01:41:10;;;;;;;;;;;7.60;99.90;;;;;;4982287;28;20027;-76
2023/05/05 01:43:37;;;;;;;6.85;4.68;;;7.60;99.90;;;;;;4982292;28;19917;-76
2023/05/05 01:46:03;;;;;;;7.88;4.50;;;7.80;99.90;;;;;;4981588;28;20380;-76
2023/05/05 01:48:29;;;;;;;9.50;4.47;;;7.80;99.90;;;;;;4975968;28;20095;-76
2023/05/05 01:50:57;;;;;;;4.72;4.18;;;7.80;99.90;;;;;;4988223;28;20379;-75
2023/05/05 01:53:24;;;;;;;5.65;4.25;;;7.70;99.90;;;;;;4978076;28;20062;-75
2023/05/05 01:55:51;;;;;;;6.95;4.03;;;7.70;99.90;;;;;;4982248;28;20072;-75
2023/05/05 01:58:20;;;;;;;4.97;3.88;;;7.50;99.90;;;;;;4981693;28;20033;-75
2023/05/05 02:00:47;;;;;;;7.05;4.47;;;7.30;99.90;;;;;;4964015;28;20043;-75
2023/05/05 02:03:14;;;;;;;5.90;4.13;;;7.10;99.90;;;;;;4981452;28;20041;-75
2023/05/05 02:05:42;;;;;;;6.13;4.30;;;7.00;99.90;;;;;;4979745;28;20018;-74
2023/05/05 02:08:09;;;;;;;6.70;4.43;;;6.90;99.90;;;;;;4981781;28;20037;-75
2023/05/05 02:10:39;;;;;;;6.78;4.82;;;6.90;99.90;;;;;;4981109;28;20061;-74
2023/05/05 02:13:05;;;;;;;5.40;4.90;;;7.00;99.90;;;;;;4977650;28;20038;-75
2023/05/05 02:15:32;;;;;;;6.43;4.68;;;7.00;99.90;;;;;;4980086;28;20038;-75
2023/05/05 02:18:00;;;;;;;6.57;4.47;;;7.00;99.90;;;;;;4961280;28;20087;-75
2023/05/05 02:20:26;;;;;;;7.68;5.00;;;7.10;99.90;;;;;;4974303;28;20047;-75
2023/05/05 02:22:53;;;;;;;7.78;4.43;;;7.20;99.90;;;;;;4972364;28;20034;-75
2023/05/05 02:25:18;;;;;;;5.93;4.47;;;7.20;99.90;;;;;;4985985;28;20030;-76
2023/05/05 02:27:47;;;;;;;6.25;4.63;;;7.20;99.90;;;;;;4986157;28;20030;-76
2023/05/05 02:30:16;;;;;;;7.78;4.72;;;7.20;99.90;;;;;;4964599;29;20099;-75
2023/05/05 02:32:52;;;;;;;5.95;4.93;;;7.20;99.90;;;;;;4967363;28;20035;-75
2023/05/05 02:35:21;;;;;;;6.47;4.63;;;7.20;99.90;;;;;;4965330;29;20090;-75
2023/05/05 02:37:50;;;;;;;8.82;4.85;;;7.20;99.90;;;;;;4948952;29;20036;-75
2023/05/05 02:40:21;;;;;;;8.63;5.05;;;7.20;99.90;;;;;;4955469;28;20423;-74
2023/05/05 02:42:49;;;;;;;5.85;5.07;;;7.20;99.90;;;;;;4973186;28;20086;-75
2023/05/05 02:45:17;;;;;;;6.80;4.45;;;7.20;99.90;;;;;;4964378;28;20023;-75
2023/05/05 02:47:42;;;;;;;6.15;4.65;;;7.20;99.90;;;;;;4990973;28;20142;-75
2023/05/05 02:50:08;;;;;;;9.18;5.20;;;7.30;99.90;;;;;;5000977;28;20509;-75
2023/05/05 02:52:35;;;;;;;7.13;5.07;;;7.40;99.90;;;;;;4983194;28;20066;-75
2023/05/05 02:55:02;;;;;;;9.77;4.68;;;7.40;99.90;;;;;;4965979;29;20035;-75
2023/05/05 02:57:49;;;;;;;9.25;5.22;;;7.50;99.90;;;;;;4965545;29;20038;-75
2023/05/05 03:00:20;;;;;;;7.22;4.85;;;7.50;99.90;;;;;;4978009;28;20046;-75
2023/05/05 03:03:06;;;;;;;7.28;5.40;;;7.50;99.90;;;;;;4983465;28;20050;-75
2023/05/05 03:05:42;;;;;;;8.18;4.70;;;7.40;99.90;;;;;;4954230;28;20027;-76
2023/05/05 03:08:27;;;;;;;9.25;5.50;;;7.30;99.90;;;;;;4980710;28;20038;-75
2023/05/05 03:11:05;;;;;;;7.43;4.82;;;7.30;99.90;;;;;;4967883;28;20120;-75
2023/05/05 03:13:35;;;;;;;6.30;4.63;;;7.30;99.90;;;;;;4984525;28;20094;-74
2023/05/05 03:16:05;;;;;;;6.95;5.18;;;7.30;99.90;;;;;;4984045;28;20039;-74
2023/05/05 03:18:33;;;;;;;8.10;5.20;;;7.30;99.90;;;;;;4985148;28;20057;-75
2023/05/05 03:21:06;;;;;;;8.23;5.17;;;7.30;99.90;;;;;;4979717;28;20117;-75
2023/05/05 03:23:32;;;;;;;9.45;5.00;;;7.30;99.90;;;;;;4983811;28;20035;-75
2023/05/05 03:25:58;;;;;;;7.68;5.25;;;7.20;99.90;;;;;;4966615;28;20384;-75
2023/05/05 03:28:23;;;;;;;7.03;5.18;;;7.20;99.90;;;;;;4985102;28;20031;-74
2023/05/05 03:30:49;;;;;;;9.52;5.25;;;7.20;99.90;;;;;;4973692;28;20077;-75
2023/05/05 03:33:15;;;;;;;10.20;5.95;;;7.30;99.90;;;;;;4992752;28;20050;-75
2023/05/05 03:35:41;;;;;;;8.32;5.13;;;7.30;99.90;;;;;;4983474;28;20035;-75
2023/05/05 03:38:06;;;;;;;8.57;5.50;;;7.40;99.90;;;;;;4983595;28;20023;-75
2023/05/05 03:40:32;;;;;;;6.32;4.97;;;7.40;99.90;;;;;;4970106;28;20490;-75
2023/05/05 03:42:58;;;;;;;7.07;4.72;;;7.40;99.90;;;;;;4975280;28;20027;-75
2023/05/05 03:45:24;;;;;;;11.20;6.50;;;7.40;99.90;;;;;;4984596;28;20464;-75
2023/05/05 03:47:50;;;;;;;6.75;5.22;;;7.40;99.90;;;;;;4961823;28;20035;-74
2023/05/05 03:50:16;;;;;;;7.53;5.05;;;7.20;99.90;;;;;;4984317;28;20031;-74
2023/05/05 03:52:41;;;;;;;7.00;4.93;;;7.20;99.90;;;;;;4984676;28;20034;-75
2023/05/05 03:55:07;;;;;;;8.52;5.20;;;7.10;99.90;;;;;;4984500;28;20034;-75
2023/05/05 03:57:33;;;;;;;7.43;4.95;;;7.00;99.90;;;;;;4984111;28;20050;-75
2023/05/05 03:59:59;;;;;;;14.65;5.30;;;6.90;99.90;;;;;;4983072;28;20495;-76
2023/05/05 04:02:25;;;;;;;5.97;4.78;;;6.90;99.90;;;;;;4983278;28;20522;-76
2023/05/05 04:04:50;;;;;;;10.70;5.07;;;6.90;99.90;;;;;;4984166;28;20066;-75
2023/05/05 04:07:16;;;;;;;9.40;5.43;;;6.90;99.90;;;;;;4972664;28;20034;-75
2023/05/05 04:09:45;;;;;;;11.68;5.50;;;7.00;99.90;;;;;;4966780;28;20035;-76
2023/05/05 04:12:11;;;;;;;8.07;4.65;;;7.00;99.90;;;;;;4984313;28;20374;-76
2023/05/05 04:14:36;;;;;;;7.20;5.13;;;7.00;99.90;;;;;;4983382;28;20066;-75
2023/05/05 04:17:02;;;;;;;9.07;5.10;;;7.00;99.90;;;;;;4983319;28;20066;-75
2023/05/05 04:19:30;;;;;;;7.05;5.28;;;7.00;99.90;;;;;;4982283;28;20033;-77
2023/05/05 04:21:56;;;;;;;7.32;5.05;;;7.00;99.90;;;;;;4982221;28;20097;-75
2023/05/05 04:24:23;;;;;;;7.80;4.93;;;7.00;99.90;;;;;;4982966;28;20035;-75
2023/05/05 04:26:50;;;;;;;6.22;4.78;;;7.00;99.90;;;;;;4963449;29;20027;-75
2023/05/05 04:29:16;;;;;;;7.40;4.93;;;7.00;99.90;;;;;;4969974;28;20038;-74
2023/05/05 04:31:41;;;;;;;6.63;4.75;;;7.10;99.90;;;;;;4972614;28;20098;-74
2023/05/05 04:34:07;;;;;;;6.30;5.10;;;7.10;99.90;;;;;;4977295;28;20043;-75
2023/05/05 04:36:33;;;;;;;10.60;4.70;;;7.10;99.90;;;;;;4957364;28;20038;-75
2023/05/05 04:38:59;;;;;;;5.60;4.30;;;7.20;99.90;;;;;;4984017;28;20518;-75
2023/05/05 04:41:24;;;;;;;7.60;5.38;;;7.30;99.90;;;;;;4984780;28;20061;-76
2023/05/05 04:43:50;;;;;;;6.75;4.75;;;7.40;99.90;;;;;;4979183;28;20026;-76
2023/05/05 04:46:15;;;;;;;9.10;5.22;;;7.40;99.90;;;;;;4983513;28;20055;-76
2023/05/05 04:48:41;;;;;;;9.63;4.90;;;7.50;99.90;;;;;;4966344;28;20033;-75
2023/05/05 04:51:07;;;;;;;7.45;4.80;;;7.50;99.90;;;;;;4983981;28;20070;-76
2023/05/05 04:53:33;;;;;;;8.00;4.72;;;7.50;99.90;;;;;;4965188;28;20085;-74
2023/05/05 04:56:00;;;;;;;6.78;5.10;;;7.50;99.90;;;;;;4984540;28;20046;-75
2023/05/05 04:58:28;;;;;;;6.53;4.53;;;7.50;99.90;;;;;;4975278;28;20027;-76
2023/05/05 05:00:54;;;;;;;;;;;7.50;99.90;;;;;;4979245;28;20046;-75
2023/05/05 05:03:19;;;;;;;7.55;4.82;;;7.60;99.90;;;;;;4982571;28;19910;-75
2023/05/05 05:05:45;;;;;;;8.10;5.95;;;7.60;99.90;;;;;;4983218;28;20041;-74
2023/05/05 05:08:11;;;;;;;8.90;5.32;;;7.70;99.90;;;;;;4982789;28;20054;-76
2023/05/05 05:10:36;;;;;;;8.73;5.25;;;7.80;99.90;;;;;;4966328;28;20038;-76
2023/05/05 05:13:02;;;;;;;9.77;5.30;;;7.80;99.90;;;;;;4966767;28;20030;-76
2023/05/05 05:15:27;;;;;;;6.15;4.82;;;7.90;99.90;;;;;;4965163;28;20146;-76
2023/05/05 05:17:53;;;;;;;8.63;4.85;;;7.90;99.90;;;;;;4982350;28;20471;-75
2023/05/05 05:20:19;;;;;;;8.70;5.38;;;8.00;99.90;;;;;;4975194;28;20051;-75
2023/05/05 05:22:45;;;;;;;8.15;5.05;;;8.00;99.90;;;;;;4964191;29;20059;-75
2023/05/05 05:25:11;;;;;;;8.60;5.32;;;8.00;99.90;;;;;;4964612;29;20031;-75
2023/05/05 05:27:36;;;;;;;7.68;5.03;;;8.00;99.90;;;;;;4964246;29;20067;-73
2023/05/05 05:30:02;;;;;;;13.55;6.07;;;8.10;99.90;;;;;;4963435;29;20043;-75
2023/05/05 05:32:28;;;;;;;8.90;6.00;;;8.20;99.90;;;;;;4964483;28;20042;-76
2023/05/05 05:34:54;;;;;;;6.60;5.05;;;8.40;99.90;;;;;;4974738;28;20045;-75
2023/05/05 05:37:19;;;;;;;10.75;5.53;;;8.60;99.90;;;;;;4986257;28;20027;-76
2023/05/05 05:39:51;;;;;;;10.90;6.25;;;8.80;99.90;;;;;;4963956;28;20035;-76
2023/05/05 05:42:20;;;;;;;8.80;5.70;;;9.00;99.90;;;;;;4974098;28;20067;-75
2023/05/05 05:44:45;;;;;;;11.52;5.70;;;9.10;99.90;;;;;;4979244;28;20106;-74
2023/05/05 05:47:11;;;;;;;10.63;6.32;;;9.40;99.90;;;;;;4966373;28;20035;-75
2023/05/05 05:49:36;;;;;;;9.98;6.82;;;9.60;99.90;;;;;;4966519;28;20054;-75
2023/05/05 05:52:02;;;;;;;8.68;6.38;;;9.80;99.90;;;;;;4982914;28;20057;-74
2023/05/05 05:54:28;;;;;;;13.05;7.57;;;10.10;99.90;;;;;;4980696;28;20110;-75
2023/05/05 05:56:53;;;;;;;13.25;8.38;;;10.30;99.90;;;;;;4980729;28;20056;-75
2023/05/05 05:59:32;;;;;;;11.27;7.00;;;10.50;99.90;;;;;;4984479;28;20031;-76
2023/05/05 06:01:58;;;;;;;11.63;7.60;;;10.70;99.90;;;;;;4986345;28;20443;-77
2023/05/05 06:04:23;;;;;;;13.23;8.30;;;10.90;99.90;;;;;;4985096;28;20034;-77
2023/05/05 06:06:59;;;;;;;13.75;8.27;;;11.10;99.90;;;;;;4995714;28;20042;-78
2023/05/05 06:09:25;;;;;;;13.88;7.45;;;11.40;99.90;;;;;;4986714;28;20038;-79
2023/05/05 06:11:50;;;;;;;11.63;8.05;;;11.70;99.90;;;;;;4983699;28;20015;-79
2023/05/05 06:14:16;;;;;;;11.73;7.60;;;11.80;99.90;;;;;;4985862;28;20026;-79
2023/05/05 06:16:43;;;;;;;11.95;7.90;;;12.00;99.90;;;;;;4979784;28;20043;-78
2023/05/05 06:19:09;;;;;;;11.98;7.07;;;12.20;99.90;;;;;;4981291;28;20036;-78
2023/05/05 06:21:35;;;;;;;9.95;6.97;;;12.40;99.90;;;;;;4971204;28;20142;-78
2023/05/05 06:24:01;;;;;;;9.75;6.85;;;12.50;99.90;;;;;;4987181;28;20479;-78
2023/05/05 06:26:27;;;;;;;9.73;6.78;;;12.70;99.90;;;;;;5003389;28;20036;-78
2023/05/05 06:28:53;;;;;;;12.05;7.07;;;12.90;99.90;;;;;;4970019;28;20023;-79
2023/05/05 06:31:19;;;;;;;9.00;6.40;;;13.10;99.90;;;;;;4991902;28;20043;-79
2023/05/05 06:33:45;;;;;;;9.07;6.50;;;13.30;99.90;;;;;;4968269;28;20039;-78
2023/05/05 06:36:10;;;;;;;8.13;6.70;;;13.50;99.90;;;;;;4982015;28;20097;-77
2023/05/05 06:38:36;;;;;;;9.15;6.72;;;13.70;99.90;;;;;;4979156;28;20035;-77
2023/05/05 06:41:02;;;;;;;8.40;6.55;;;13.80;99.90;;;;;;4986657;28;20030;-77
2023/05/05 06:43:28;;;;;;;8.75;6.22;;;14.10;99.90;;;;;;4986497;28;20039;-77
2023/05/05 06:45:54;;;;;;;9.25;6.07;;;14.40;99.90;;;;;;4985991;28;20062;-78
2023/05/05 06:48:19;;;;;;;8.88;5.90;;;14.60;99.90;;;;;;4977035;28;20046;-78
2023/05/05 06:50:45;;;;;;;8.55;6.43;;;14.80;99.90;;;;;;4983521;28;20038;-78
2023/05/05 06:53:10;;;;;;;9.13;6.78;;;14.90;99.90;;;;;;4985557;28;20023;-78
2023/05/05 06:55:36;;;;;;;9.07;6.25;;;15.00;99.90;;;;;;4981301;28;20035;-77
2023/05/05 06:58:02;;;;;;;7.03;5.75;;;15.20;99.90;;;;;;4983165;28;20070;-77
2023/05/05 07:00:28;;;;;;;7.07;5.40;;;15.30;99.90;;;;;;4980940;28;20038;-78
2023/05/05 07:02:53;;;;;;;7.65;6.07;;;15.40;99.90;;;;;;4987691;28;20034;-75
2023/05/05 07:05:19;;;;;;;10.18;6.47;;;15.60;99.90;;;;;;4978741;28;20058;-76
2023/05/05 07:07:53;;;;;;;10.85;5.95;;;15.70;99.90;;;;;;4972560;28;20100;-75
2023/05/05 07:10:18;;;;;;;8.65;5.90;;;15.70;99.90;;;;;;4982017;28;20027;-75
2023/05/05 07:12:45;;;;;;;7.53;5.72;;;16.00;99.90;;;;;;4995386;28;20026;-75
2023/05/05 07:15:11;;;;;;;8.85;5.82;;;16.20;99.90;;;;;;4985944;28;20050;-75
2023/05/05 07:17:36;;;;;;;9.40;5.53;;;16.40;99.90;;;;;;4974476;28;20039;-76
2023/05/05 07:20:02;;;;;;;9.93;5.88;;;16.60;99.90;;;;;;4982136;28;20097;-75
2023/05/05 07:22:28;;;;;;;8.90;5.57;;;16.80;99.90;;;;;;4986866;28;20038;-74
2023/05/05 07:24:53;;;;;;;7.85;5.78;;;17.20;99.90;;;;;;4984628;28;20047;-75
2023/05/05 07:27:20;;;;;;;7.03;5.80;;;17.30;99.90;;;;;;4967092;28;20386;-75
2023/05/05 07:29:45;;;;;;;7.22;5.80;;;17.10;99.90;;;;;;4981853;28;20034;-75
2023/05/05 07:32:12;;;;;;;8.25;5.78;;;16.90;99.90;;;;;;4985960;28;20035;-75
2023/05/05 07:34:39;;;;;;;7.35;5.45;;;17.00;99.90;;;;;;4985906;28;20031;-75
2023/05/05 07:37:05;;;;;;;6.90;5.53;;;17.10;99.90;;;;;;4985609;28;20038;-75
2023/05/05 07:39:31;;;;;;;8.27;5.53;;;17.30;99.90;;;;;;4986160;28;20023;-75
2023/05/05 07:41:57;;;;;;;8.45;5.47;;;17.60;99.90;;;;;;4994516;28;20414;-76
2023/05/05 07:44:22;;;;;;;5.97;5.28;;;17.70;99.90;;;;;;5005755;28;20030;-76
2023/05/05 07:46:48;;;;;;;6.60;5.05;;;17.70;99.90;;;;;;5006343;28;20065;-77
2023/05/05 07:49:14;;;;;;;6.68;4.40;;;17.80;99.90;;;;;;5006268;28;20039;-76
2023/05/05 07:51:40;;;;;;;6.57;4.75;;;17.80;99.90;;;;;;5006358;28;20037;-76
2023/05/05 07:54:06;;;;;;;5.20;4.70;;;18.00;99.90;;;;;;5006183;28;20034;-75
2023/05/05 07:56:35;;;;;;;5.85;4.22;;;17.90;99.90;;;;;;5006677;28;20033;-75
2023/05/05 07:59:01;;;;;;;4.95;4.43;;;17.80;99.90;;;;;;5005640;28;20386;-75
2023/05/05 08:01:26;;;;;;;4.90;4.50;;;17.80;99.90;;;;;;4995950;28;20107;-76
2023/05/05 08:03:52;;;;;;;5.60;4.80;;;17.80;99.90;;;;;;4985852;28;20053;-76
2023/05/05 08:06:22;;;;;;;6.22;4.88;;;18.00;99.90;;;;;;4967412;28;20054;-76
2023/05/05 08:08:48;;;;;;;7.28;4.78;;;18.30;99.90;;;;;;4985203;28;20026;-75
2023/05/05 08:11:14;;;;;;;7.03;4.95;;;18.40;99.90;;;;;;4966870;28;20045;-76
2023/05/05 08:13:44;;;;;;;7.90;4.45;;;18.50;99.90;;;;;;4952141;29;20043;-76
2023/05/05 08:16:10;;;;;;;6.03;4.63;;;18.70;99.90;;;;;;4960694;29;20036;-75
2023/05/05 08:18:37;;;;;;;6.70;4.68;;;18.90;99.90;;;;;;4948587;29;20028;-76
2023/05/05 08:21:07;;;;;;;5.45;4.35;;;19.00;99.90;;;;;;4966717;29;20081;-75
2023/05/05 08:23:34;;;;;;;5.30;4.35;;;19.20;99.90;;;;;;4966383;28;20456;-75
2023/05/05 08:26:01;;;;;;;4.75;4.18;;;19.10;99.90;;;;;;4966438;29;21072;-75
2023/05/05 08:28:27;;;;;;;6.38;5.45;;;19.10;99.90;;;;;;4968489;28;20033;-75
2023/05/05 08:30:53;;;;;;;6.07;4.43;;;19.10;99.90;;;;;;4949189;29;20027;-75
2023/05/05 08:33:18;;;;;;;6.32;4.97;;;19.10;99.90;;;;;;4945704;29;20034;-75
2023/05/05 08:35:44;;;;;;;4.63;4.13;;;19.10;99.90;;;;;;4946018;29;20051;-75
2023/05/05 08:38:11;;;;;;;6.07;4.15;;;19.30;99.90;;;;;;4946577;29;20047;-75
2023/05/05 08:40:38;;;;;;;4.78;4.20;;;19.30;99.90;;;;;;4946602;29;20034;-75
2023/05/05 08:43:04;;;;;;;5.28;4.78;;;19.30;99.90;;;;;;4945170;29;20032;-75
2023/05/05 08:45:30;;;;;;;3.95;3.60;;;19.20;99.90;;;;;;4945484;29;20357;-75
2023/05/05 08:47:58;;;;;;;5.95;4.72;;;19.30;99.90;;;;;;4932157;29;20065;-75
2023/05/05 08:50:26;;;;;;;5.65;4.30;;;19.30;99.90;;;;;;4947831;29;20032;-75
2023/05/05 08:53:15;;;;;;;8.60;4.53;;;19.40;99.90;;;;;;4946324;29;20113;-74
2023/05/05 08:55:48;;;;;;;5.45;4.10;;;19.50;99.90;;;;;;4947666;29;20032;-74
2023/05/05 08:58:16;;;;;;;5.05;4.18;;;19.60;99.90;;;;;;4948075;29;20068;-75
2023/05/05 09:00:43;;;;;;;;;;;19.80;99.90;;;;;;4930177;29;20464;-75
2023/05/05 09:03:09;;;;;;;7.00;3.22;;;19.90;99.90;;;;;;4947690;29;19907;-75
2023/05/05 09:05:35;;;;;;;3.97;3.30;;;20.00;99.90;;;;;;4959381;28;20039;-74
2023/05/05 09:08:01;;;;;;;3.60;3.30;;;19.80;99.90;;;;;;4923965;29;20035;-73
2023/05/05 09:10:27;;;;;;;4.55;3.45;;;19.90;99.90;;;;;;4921930;29;20180;-73
2023/05/05 09:12:53;;;;;;;4.63;3.78;;;20.30;99.90;;;;;;4922298;29;20631;-73
2023/05/05 09:15:19;;;;;;;6.88;3.88;;;20.70;99.90;;;;;;4938808;29;20120;-73
2023/05/05 09:17:44;;;;;;;5.30;3.17;;;21.10;99.90;;;;;;4938245;29;20039;-73
2023/05/05 09:20:12;;;;;;;3.05;2.85;;;20.90;99.90;;;;;;4939953;29;20044;-72
2023/05/05 09:22:45;;;;;;;4.80;2.60;;;20.80;99.90;;;;;;4938248;29;20064;-73
2023/05/05 09:25:13;;;;;;;3.85;2.90;;;20.80;99.90;;;;;;4939005;29;20531;-72
2023/05/05 09:27:48;;;;;;;2.83;2.60;;;20.90;99.90;;;;;;4938590;29;20446;-73
2023/05/05 09:30:16;;;;;;;4.95;3.10;;;21.10;99.90;;;;;;4921415;29;20032;-73
2023/05/05 09:32:43;;;;;;;;;;;21.20;99.90;;;;;;4938902;29;20050;-72
2023/05/05 09:35:09;;;;;;;3.60;2.50;;;21.40;99.90;;;;;;4942108;29;19918;-73
2023/05/05 09:37:34;;;;;;;3.75;2.80;;;21.70;99.90;;;;;;4943666;29;20271;-72
2023/05/05 09:40:00;;;;;;;2.67;2.47;;;21.60;99.90;;;;;;4943875;29;20111;-73
2023/05/05 09:42:26;;;;;;;3.50;2.70;;;21.60;99.90;;;;;;4944435;29;20036;-72
2023/05/05 09:44:53;;;;;;;3.55;2.63;;;21.90;99.90;;;;;;4942843;29;20031;-72
2023/05/05 09:47:19;;;;;;;3.08;2.78;;;21.90;99.90;;;;;;4942873;29;20038;-73
2023/05/05 09:49:44;;;;;;;3.55;3.22;;;22.00;99.90;;;;;;4945179;29;20480;-77
2023/05/05 09:52:14;;;;;;;4.78;3.20;;;22.30;99.90;;;;;;4946580;29;20023;-75
2023/05/05 09:54:44;;;;;;;3.45;3.00;;;22.30;99.90;;;;;;4981145;28;20031;-76
2023/05/05 09:57:33;;;;;;;11.50;3.95;;;22.20;99.90;;;;;;4950170;28;20063;-78
2023/05/05 10:00:03;;;;;;;4.30;2.88;;;22.00;99.90;;;;;;4950515;29;20055;-83
2023/05/05 10:02:38;;;;;;;4.65;3.08;;;22.30;99.90;;;;;;4950615;28;20039;-77
2023/05/05 10:05:05;;;;;;;6.10;3.22;;;22.20;99.90;;;;;;4950494;29;20039;-79
2023/05/05 10:07:30;;;;;;;3.63;2.90;;;22.00;99.90;;;;;;4951093;29;20494;-80
2023/05/05 10:09:56;;;;;;;3.45;2.90;;;21.80;99.90;;;;;;4950391;29;20059;-79
2023/05/05 10:12:24;;;;;;;5.03;3.40;;;21.70;99.90;;;;;;4950888;29;20024;-80
2023/05/05 10:14:54;;;;;;;7.50;3.25;;;21.70;99.90;;;;;;4950348;29;20031;-76
2023/05/05 10:17:22;;;;;;;6.05;4.10;;;21.70;99.90;;;;;;4950952;28;20115;-82
2023/05/05 10:19:51;;;;;;;9.60;3.58;;;22.00;99.90;;;;;;4949550;29;20071;-82
2023/05/05 10:22:21;;;;;;;4.97;3.30;;;22.30;99.90;;;;;;4949887;29;20054;-81
2023/05/05 10:24:58;;;;;;;5.75;3.22;;;22.30;99.90;;;;;;4950003;28;20042;-79
2023/05/05 10:27:26;;;;;;;4.68;3.17;;;22.10;99.90;;;;;;4950575;28;20043;-77
2023/05/05 10:30:03;;;;;;;7.30;3.50;;;21.90;99.90;;;;;;4949154;29;20157;-75
2023/05/05 10:32:38;;;;;;;5.05;3.72;;;21.70;99.90;;;;;;4979595;28;20122;-83
2023/05/05 10:35:07;;;;;;;5.38;3.72;;;21.80;99.90;;;;;;4949604;29;20035;-83
2023/05/05 10:37:40;;;;;;;6.03;4.30;;;21.90;99.90;;;;;;4949770;29;20038;-82
2023/05/05 10:40:08;;;;;;;19.38;4.97;;;22.10;99.90;;;;;;4948983;28;20409;-82
2023/05/05 10:42:38;;;;;;;4.97;3.47;;;22.30;99.90;;;;;;4948344;29;20064;-82
2023/05/05 10:45:05;;;;;;;4.75;2.92;;;22.40;99.90;;;;;;4964835;28;20051;-89
2023/05/05 10:47:32;;;;;;;3.33;2.92;;;22.40;99.90;;;;;;4949255;29;20026;-90
2023/05/05 10:50:08;;;;;;;3.05;2.60;;;22.60;99.90;;;;;;4950069;29;20074;-84
2023/05/05 10:53:02;;;;;;;4.90;2.55;;;21.80;99.90;;;;;;4950206;29;20042;-82
2023/05/05 10:56:12;;;;;;;59.20;7.28;;;21.40;99.90;;;;;;4967491;29;20065;-81
2023/05/05 10:58:40;;;;;;;6.93;2.90;;;21.70;99.90;;;;;;4871432;29;20479;-87
2023/05/05 11:01:06;;;;;;;2.72;2.45;;;22.10;99.90;;;;;;4864643;29;20041;-84
2023/05/05 11:03:32;;;;;;;2.40;2.20;;;22.50;99.90;;;;;;4933111;29;20040;-83
2023/05/05 11:08:34;;;;;;;3.17;2.38;;;22.00;99.90;;;;;;4968131;29;20468;-84
2023/05/05 11:11:01;;;;;;;3.78;3.08;;;22.20;99.90;;;;;;4951352;29;20031;-82
2023/05/05 11:13:27;;;;;;;4.10;3.35;;;22.40;99.90;;;;;;4935732;29;20126;-82
2023/05/05 11:15:58;;;;;;;3.95;3.00;;;22.50;99.90;;;;;;4968049;28;20114;-86
2023/05/05 11:18:35;;;;;;;4.75;2.97;;;22.70;99.90;;;;;;4950904;29;20031;-85
2023/05/05 11:21:00;;;;;;;8.32;2.90;;;22.80;99.90;;;;;;4952554;29;20067;-85
2023/05/05 11:23:27;;;;;;;56.97;10.23;;;22.80;99.90;;;;;;4948926;29;20032;-85
2023/05/05 11:25:54;;;;;;;4.80;3.20;;;23.00;99.90;;;;;;4949127;29;20028;-87
2023/05/05 11:28:23;;;;;;;3.28;2.95;;;23.30;99.90;;;;;;4952253;29;20036;-86
2023/05/05 11:30:57;;;;;;;3.35;2.70;;;23.10;99.90;;;;;;4947451;28;20036;-88
2023/05/05 11:33:38;;;;;;;4.40;3.97;;;23.30;99.90;;;;;;4945993;29;20028;-85
2023/05/05 11:36:06;;;;;;;5.00;4.00;;;23.20;99.90;;;;;;4946541;29;20031;-88
2023/05/05 11:38:38;;;;;;;4.28;3.60;;;23.00;99.90;;;;;;4945680;29;20031;-86
2023/05/05 11:41:13;;;;;;;5.38;3.60;;;22.90;99.90;;;;;;4941692;29;20189;-80
2023/05/05 11:43:42;;;;;;;5.15;4.05;;;23.30;99.90;;;;;;4946681;29;20059;-80
2023/05/05 11:46:14;;;;;;;5.10;4.00;;;23.30;99.90;;;;;;4929242;29;20075;-80
2023/05/05 11:48:46;;;;;;;4.53;4.00;;;22.70;99.90;;;;;;4939355;29;20059;-81
2023/05/05 11:51:13;;;;;;;4.78;3.85;;;22.70;99.90;;;;;;4946684;29;20449;-80
2023/05/05 11:53:45;;;;;;;3.97;3.50;;;23.10;99.90;;;;;;4939851;29;20114;-80
2023/05/05 11:56:17;;;;;;;4.28;3.53;;;22.90;99.90;;;;;;4945050;28;20040;-86
2023/05/05 11:58:44;;;;;;;4.00;3.60;;;22.90;99.90;;;;;;4950769;29;20031;-84
2023/05/05 12:01:10;;;;;;;3.65;3.35;;;23.20;99.90;;;;;;4954003;28;20039;-85
2023/05/05 12:03:39;;;;;;;5.15;3.65;;;23.20;99.90;;;;;;4965023;28;20042;-87
2023/05/05 12:06:06;;;;;;;5.10;3.58;;;23.50;99.90;;;;;;4970540;28;20495;-86
2023/05/05 12:08:39;;;;;;;4.57;3.67;;;23.40;99.90;;;;;;4965775;29;20023;-87
2023/05/05 12:11:09;;;;;;;3.70;3.28;;;23.10;99.90;;;;;;4976949;28;20043;-85
2023/05/05 12:13:35;;;;;;;5.75;3.33;;;23.00;99.90;;;;;;4962187;29;20039;-81
2023/05/05 12:16:11;;;;;;;4.13;2.95;;;23.30;99.90;;;;;;4959420;29;20035;-85
2023/05/05 12:18:38;;;;;;;3.90;3.28;;;23.50;99.90;;;;;;4959449;29;20074;-85
2023/05/05 12:21:17;;;;;;;3.50;3.03;;;23.70;99.90;;;;;;4977936;28;20054;-85
2023/05/05 12:23:43;;;;;;;5.43;3.28;;;23.50;99.90;;;;;;4970001;28;20034;-83
2023/05/05 12:26:27;;;;;;;5.90;3.40;;;23.10;99.90;;;;;;4980766;28;20045;-88
2023/05/05 12:28:54;;;;;;;4.75;3.17;;;23.10;99.90;;;;;;4981074;28;20030;-79
2023/05/05 12:31:19;;;;;;;4.63;2.80;;;23.00;99.90;;;;;;4981126;28;20043;-78
2023/05/05 12:33:46;;;;;;;2.85;2.58;;;23.20;99.90;;;;;;4984854;28;20082;-77
2023/05/05 12:36:12;;;;;;;3.90;3.25;;;23.10;99.90;;;;;;4983538;28;20165;-78
2023/05/05 12:38:38;;;;;;;5.05;3.53;;;22.80;99.90;;;;;;4984835;28;20031;-77
2023/05/05 12:41:04;;;;;;;3.85;3.20;;;23.00;99.90;;;;;;4984784;28;20085;-79
2023/05/05 12:43:30;;;;;;;4.13;3.25;;;23.30;99.90;;;;;;4981578;28;20066;-81
2023/05/05 12:45:59;;;;;;;3.17;2.85;;;23.70;99.90;;;;;;4981214;28;20031;-77
2023/05/05 12:48:25;;;;;;;3.72;2.80;;;23.90;99.90;;;;;;4974978;28;20035;-78
2023/05/05 12:50:51;;;;;;;3.85;2.75;;;23.80;99.90;;;;;;4996122;28;20038;-77
2023/05/05 12:53:23;;;;;;;3.25;2.42;;;24.00;99.90;;;;;;4983277;28;20082;-80
2023/05/05 12:55:50;;;;;;;4.97;2.75;;;24.10;99.90;;;;;;4987006;28;20042;-83
2023/05/05 12:58:16;;;;;;;4.33;3.07;;;24.10;99.90;;;;;;4975936;28;20056;-77